Terminal Aerodrome Forecast
Issued by NWS

Home | Current Version | Previous Version | Text Only | Print | Product List | Glossary On
Versions: 1 2 3 4 5 6 7 8 9 10 11 12
000
FTUS43 KDVN 272326
TAFCID
TAF
KCID 272326Z 2800/2824 14006KT P6SM BKN150
     FM281300 15010KT P6SM VCSH BKN070
     FM281600 15012G20KT 5SM -RA BR SCT025 OVC040
     FM282100 14012KT 3SM -RA BR OVC025=

USA.gov is the U.S. government's official web portal to all federal, state and local government web resources and services.